sensor_id;sensor_type;location;lat;lon;timestamp;P1;durP1;ratioP1;P2;durP2;ratioP2
71955;SDS011;59829;50.562;6.258;2022-12-18T00:04:28;0.00;;;0.00;;
71955;SDS011;59829;50.562;6.258;2022-12-18T00:14:29;0.50;;;0.10;;
71955;SDS011;59829;50.562;6.258;2022-12-18T00:24:30;0.63;;;0.00;;
71955;SDS011;59829;50.562;6.258;2022-12-18T00:34:30;0.00;;;0.00;;
71955;SDS011;59829;50.562;6.258;2022-12-18T00:44:30;0.13;;;0.10;;
71955;SDS011;59829;50.562;6.258;2022-12-18T00:54:31;0.05;;;0.00;;
71955;SDS011;59829;50.562;6.258;2022-12-18T01:04:32;0.13;;;0.00;;
71955;SDS011;59829;50.562;6.258;2022-12-18T01:14:33;0.00;;;0.00;;
71955;SDS011;59829;50.562;6.258;2022-12-18T01:24:33;0.00;;;0.00;;
71955;SDS011;59829;50.562;6.258;2022-12-18T01:34:34;0.15;;;0.08;;
71955;SDS011;59829;50.562;6.258;2022-12-18T01:54:58;0.00;;;0.00;;
71955;SDS011;59829;50.562;6.258;2022-12-18T02:05:00;0.00;;;0.00;;
71955;SDS011;59829;50.562;6.258;2022-12-18T02:15:13;0.00;;;0.00;;
71955;SDS011;59829;50.562;6.258;2022-12-18T02:36:01;0.00;;;0.00;;
71955;SDS011;59829;50.562;6.258;2022-12-18T02:46:23;0.00;;;0.00;;
71955;SDS011;59829;50.562;6.258;2022-12-18T02:56:33;0.00;;;0.00;;
71955;SDS011;59829;50.562;6.258;2022-12-18T03:06:39;0.00;;;0.00;;
71955;SDS011;59829;50.562;6.258;2022-12-18T03:16:44;0.00;;;0.00;;
71955;SDS011;59829;50.562;6.258;2022-12-18T03:26:46;0.00;;;0.00;;
71955;SDS011;59829;50.562;6.258;2022-12-18T03:36:52;0.00;;;0.00;;
71955;SDS011;59829;50.562;6.258;2022-12-18T03:46:58;0.05;;;0.00;;
71955;SDS011;59829;50.562;6.258;2022-12-18T03:57:18;0.10;;;0.00;;
71955;SDS011;59829;50.562;6.258;2022-12-18T04:07:20;0.00;;;0.00;;
71955;SDS011;59829;50.562;6.258;2022-12-18T04:17:23;0.00;;;0.00;;
71955;SDS011;59829;50.562;6.258;2022-12-18T04:27:23;0.00;;;0.00;;
71955;SDS011;59829;50.562;6.258;2022-12-18T04:37:24;0.05;;;0.00;;
71955;SDS011;59829;50.562;6.258;2022-12-18T04:47:24;0.10;;;0.00;;
71955;SDS011;59829;50.562;6.258;2022-12-18T04:57:24;0.28;;;0.00;;
71955;SDS011;59829;50.562;6.258;2022-12-18T05:07:25;0.40;;;0.10;;
71955;SDS011;59829;50.562;6.258;2022-12-18T05:17:25;0.32;;;0.00;;
71955;SDS011;59829;50.562;6.258;2022-12-18T05:27:25;0.10;;;0.08;;
71955;SDS011;59829;50.562;6.258;2022-12-18T05:37:26;0.43;;;0.20;;
71955;SDS011;59829;50.562;6.258;2022-12-18T05:47:27;0.55;;;0.17;;
71955;SDS011;59829;50.562;6.258;2022-12-18T05:57:28;0.00;;;0.00;;
71955;SDS011;59829;50.562;6.258;2022-12-18T06:07:28;0.03;;;0.00;;
71955;SDS011;59829;50.562;6.258;2022-12-18T06:17:29;0.17;;;0.00;;
71955;SDS011;59829;50.562;6.258;2022-12-18T06:27:30;0.00;;;0.00;;
71955;SDS011;59829;50.562;6.258;2022-12-18T06:37:30;0.15;;;0.00;;
71955;SDS011;59829;50.562;6.258;2022-12-18T06:47:31;0.00;;;0.00;;
71955;SDS011;59829;50.562;6.258;2022-12-18T06:57:31;0.00;;;0.00;;
71955;SDS011;59829;50.562;6.258;2022-12-18T07:07:33;0.30;;;0.10;;
71955;SDS011;59829;50.562;6.258;2022-12-18T07:17:34;1.83;;;0.55;;
71955;SDS011;59829;50.562;6.258;2022-12-18T07:27:35;1.23;;;0.50;;
71955;SDS011;59829;50.562;6.258;2022-12-18T07:37:35;1.80;;;0.68;;
71955;SDS011;59829;50.562;6.258;2022-12-18T07:47:35;1.23;;;0.43;;
71955;SDS011;59829;50.562;6.258;2022-12-18T07:57:36;2.75;;;0.90;;
71955;SDS011;59829;50.562;6.258;2022-12-18T08:07:36;4.22;;;1.50;;
71955;SDS011;59829;50.562;6.258;2022-12-18T08:17:36;4.18;;;1.42;;
71955;SDS011;59829;50.562;6.258;2022-12-18T08:27:37;3.30;;;1.10;;
71955;SDS011;59829;50.562;6.258;2022-12-18T08:37:37;2.20;;;0.45;;
71955;SDS011;59829;50.562;6.258;2022-12-18T08:47:37;1.55;;;0.43;;
71955;SDS011;59829;50.562;6.258;2022-12-18T08:57:38;0.80;;;0.38;;
71955;SDS011;59829;50.562;6.258;2022-12-18T09:07:38;0.85;;;0.40;;
71955;SDS011;59829;50.562;6.258;2022-12-18T09:17:39;1.27;;;0.60;;
71955;SDS011;59829;50.562;6.258;2022-12-18T09:27:39;1.52;;;0.70;;
71955;SDS011;59829;50.562;6.258;2022-12-18T09:37:39;3.10;;;1.35;;
71955;SDS011;59829;50.562;6.258;2022-12-18T09:47:41;3.00;;;0.87;;
71955;SDS011;59829;50.562;6.258;2022-12-18T09:57:45;2.05;;;1.00;;
71955;SDS011;59829;50.562;6.258;2022-12-18T10:07:58;2.90;;;1.20;;
71955;SDS011;59829;50.562;6.258;2022-12-18T10:28:10;2.10;;;1.05;;
71955;SDS011;59829;50.562;6.258;2022-12-18T10:48:19;2.40;;;1.20;;
71955;SDS011;59829;50.562;6.258;2022-12-18T11:08:32;4.75;;;2.03;;
71955;SDS011;59829;50.562;6.258;2022-12-18T11:18:33;4.57;;;1.85;;
71955;SDS011;59829;50.562;6.258;2022-12-18T11:38:44;3.03;;;1.40;;
71955;SDS011;59829;50.562;6.258;2022-12-18T11:48:52;3.27;;;1.47;;
71955;SDS011;59829;50.562;6.258;2022-12-18T11:59:02;4.45;;;1.70;;
71955;SDS011;59829;50.562;6.258;2022-12-18T12:09:32;4.28;;;1.90;;
71955;SDS011;59829;50.562;6.258;2022-12-18T12:19:44;2.88;;;1.30;;
71955;SDS011;59829;50.562;6.258;2022-12-18T12:29:58;3.03;;;1.50;;
71955;SDS011;59829;50.562;6.258;2022-12-18T12:40:04;2.90;;;1.52;;
71955;SDS011;59829;50.562;6.258;2022-12-18T12:50:06;3.40;;;1.70;;
71955;SDS011;59829;50.562;6.258;2022-12-18T13:00:15;2.80;;;1.40;;
71955;SDS011;59829;50.562;6.258;2022-12-18T13:20:19;2.33;;;1.20;;
71955;SDS011;59829;50.562;6.258;2022-12-18T13:30:41;2.20;;;1.13;;
71955;SDS011;59829;50.562;6.258;2022-12-18T13:40:56;5.13;;;1.90;;
71955;SDS011;59829;50.562;6.258;2022-12-18T14:01:10;4.10;;;1.90;;
71955;SDS011;59829;50.562;6.258;2022-12-18T14:11:22;5.20;;;2.30;;
71955;SDS011;59829;50.562;6.258;2022-12-18T14:21:23;4.10;;;1.90;;
71955;SDS011;59829;50.562;6.258;2022-12-18T14:31:27;4.68;;;2.22;;
71955;SDS011;59829;50.562;6.258;2022-12-18T14:41:29;6.10;;;2.42;;
71955;SDS011;59829;50.562;6.258;2022-12-18T14:51:30;6.15;;;2.65;;
71955;SDS011;59829;50.562;6.258;2022-12-18T15:01:34;6.93;;;3.00;;
71955;SDS011;59829;50.562;6.258;2022-12-18T15:21:39;10.15;;;3.75;;
71955;SDS011;59829;50.562;6.258;2022-12-18T15:31:43;8.45;;;3.88;;
71955;SDS011;59829;50.562;6.258;2022-12-18T15:41:43;7.32;;;3.30;;
71955;SDS011;59829;50.562;6.258;2022-12-18T15:52:04;8.80;;;3.70;;
71955;SDS011;59829;50.562;6.258;2022-12-18T16:02:07;8.35;;;3.15;;
71955;SDS011;59829;50.562;6.258;2022-12-18T16:12:23;6.60;;;2.85;;
71955;SDS011;59829;50.562;6.258;2022-12-18T16:22:26;7.32;;;3.08;;
71955;SDS011;59829;50.562;6.258;2022-12-18T16:32:28;7.93;;;3.28;;
71955;SDS011;59829;50.562;6.258;2022-12-18T16:42:28;7.25;;;3.17;;
71955;SDS011;59829;50.562;6.258;2022-12-18T16:52:29;10.02;;;3.60;;
71955;SDS011;59829;50.562;6.258;2022-12-18T17:02:29;11.43;;;5.07;;
71955;SDS011;59829;50.562;6.258;2022-12-18T17:12:29;11.10;;;4.03;;
71955;SDS011;59829;50.562;6.258;2022-12-18T17:22:30;10.32;;;4.15;;
71955;SDS011;59829;50.562;6.258;2022-12-18T17:32:30;9.50;;;3.90;;
71955;SDS011;59829;50.562;6.258;2022-12-18T17:42:30;10.35;;;4.20;;
71955;SDS011;59829;50.562;6.258;2022-12-18T17:52:30;9.02;;;3.60;;
71955;SDS011;59829;50.562;6.258;2022-12-18T18:02:31;9.00;;;4.00;;
71955;SDS011;59829;50.562;6.258;2022-12-18T18:12:31;8.25;;;3.78;;
71955;SDS011;59829;50.562;6.258;2022-12-18T18:22:50;8.82;;;3.90;;
71955;SDS011;59829;50.562;6.258;2022-12-18T18:32:50;12.68;;;5.15;;
71955;SDS011;59829;50.562;6.258;2022-12-18T18:42:51;11.30;;;4.30;;
71955;SDS011;59829;50.562;6.258;2022-12-18T18:52:51;12.07;;;5.28;;
71955;SDS011;59829;50.562;6.258;2022-12-18T19:02:52;16.60;;;6.10;;
71955;SDS011;59829;50.562;6.258;2022-12-18T19:12:52;11.63;;;4.97;;
71955;SDS011;59829;50.562;6.258;2022-12-18T19:23:11;11.68;;;4.95;;
71955;SDS011;59829;50.562;6.258;2022-12-18T19:33:11;12.13;;;5.10;;
71955;SDS011;59829;50.562;6.258;2022-12-18T19:43:11;10.23;;;4.05;;
71955;SDS011;59829;50.562;6.258;2022-12-18T19:53:12;9.85;;;4.07;;
71955;SDS011;59829;50.562;6.258;2022-12-18T20:03:12;12.07;;;4.32;;
71955;SDS011;59829;50.562;6.258;2022-12-18T20:13:13;11.43;;;4.30;;
71955;SDS011;59829;50.562;6.258;2022-12-18T20:23:14;11.63;;;4.93;;
71955;SDS011;59829;50.562;6.258;2022-12-18T20:33:14;10.88;;;4.82;;
71955;SDS011;59829;50.562;6.258;2022-12-18T20:43:15;11.20;;;4.50;;
71955;SDS011;59829;50.562;6.258;2022-12-18T20:53:16;11.38;;;4.90;;
71955;SDS011;59829;50.562;6.258;2022-12-18T21:03:16;10.32;;;4.70;;
71955;SDS011;59829;50.562;6.258;2022-12-18T21:13:17;9.73;;;4.28;;
71955;SDS011;59829;50.562;6.258;2022-12-18T21:23:18;10.80;;;4.30;;
71955;SDS011;59829;50.562;6.258;2022-12-18T21:33:18;9.93;;;4.13;;
71955;SDS011;59829;50.562;6.258;2022-12-18T21:43:18;8.82;;;3.90;;
71955;SDS011;59829;50.562;6.258;2022-12-18T21:53:38;10.23;;;4.40;;
71955;SDS011;59829;50.562;6.258;2022-12-18T22:03:39;9.32;;;3.80;;
71955;SDS011;59829;50.562;6.258;2022-12-18T22:13:39;7.65;;;2.90;;
71955;SDS011;59829;50.562;6.258;2022-12-18T22:23:39;9.15;;;3.78;;
71955;SDS011;59829;50.562;6.258;2022-12-18T22:33:39;9.57;;;3.78;;
71955;SDS011;59829;50.562;6.258;2022-12-18T22:43:40;7.18;;;2.83;;
71955;SDS011;59829;50.562;6.258;2022-12-18T22:53:40;8.07;;;3.03;;
71955;SDS011;59829;50.562;6.258;2022-12-18T23:03:42;8.55;;;3.50;;
71955;SDS011;59829;50.562;6.258;2022-12-18T23:13:42;9.90;;;4.07;;
71955;SDS011;59829;50.562;6.258;2022-12-18T23:23:43;8.63;;;3.58;;
71955;SDS011;59829;50.562;6.258;2022-12-18T23:33:45;7.78;;;3.40;;
71955;SDS011;59829;50.562;6.258;2022-12-18T23:43:47;9.80;;;3.93;;
71955;SDS011;59829;50.562;6.258;2022-12-18T23:53:48;9.38;;;4.00;;
